createdAt,value
2023-05-16T00:03:08.214Z,98.73
2023-05-16T00:08:14.719Z,98.78
2023-05-16T00:13:25.948Z,99.33
2023-05-16T00:18:32.453Z,98.98
2023-05-16T00:23:39.071Z,99.14
2023-05-16T00:28:47.321Z,99.24
2023-05-16T00:33:53.784Z,99.15
2023-05-16T00:39:03.457Z,98.72
2023-05-16T00:44:11.936Z,99.11
2023-05-16T00:49:18.977Z,98.96
2023-05-16T00:54:29.633Z,98.50
2023-05-16T00:59:37.972Z,99.16
2023-05-16T01:04:46.294Z,98.63
2023-05-16T01:09:53.321Z,99.10
2023-05-16T01:15:10.229Z,98.51
2023-05-16T01:20:30.534Z,98.98
2023-05-16T01:25:58.743Z,98.88
2023-05-16T01:31:07.485Z,98.77
2023-05-16T01:36:28.124Z,99.46
2023-05-16T01:41:45.270Z,98.44
2023-05-16T01:46:59.962Z,99.19
2023-05-16T01:52:15.264Z,98.65
2023-05-16T01:57:23.813Z,98.37
2023-05-16T02:02:32.769Z,98.12
2023-05-16T02:07:43.278Z,97.39
2023-05-16T02:12:49.654Z,97.57
2023-05-16T02:17:58.987Z,97.61
2023-05-16T02:23:05.397Z,97.16
2023-05-16T02:28:11.878Z,97.17
2023-05-16T02:33:19.574Z,97.44
2023-05-16T02:38:26.037Z,97.26
2023-05-16T02:43:32.459Z,96.93
2023-05-16T02:48:40.408Z,97.15
2023-05-16T02:53:47.234Z,97.30
2023-05-16T02:58:55.150Z,97.55
2023-05-16T03:04:03.058Z,97.47
2023-05-16T03:09:09.954Z,98.01
2023-05-16T03:14:16.884Z,98.18
2023-05-16T03:19:27.443Z,98.57
2023-05-16T03:24:35.530Z,98.29
2023-05-16T03:29:42.493Z,98.71
2023-05-16T03:34:50.440Z,98.38
2023-05-16T03:39:57.175Z,98.61
2023-05-16T03:45:04.014Z,98.80
2023-05-16T03:50:12.958Z,98.37
2023-05-16T03:55:19.645Z,98.51
2023-05-16T04:00:27.397Z,98.67
2023-05-16T04:05:35.288Z,97.86
2023-05-16T04:10:42.001Z,97.94
2023-05-16T04:15:48.570Z,97.67
2023-05-16T04:20:56.693Z,97.44
2023-05-16T04:26:04.973Z,97.48
2023-05-16T04:31:11.621Z,97.56
2023-05-16T04:36:19.500Z,97.51
2023-05-16T04:41:25.865Z,95.94
2023-05-16T04:46:32.547Z,96.85
2023-05-16T04:51:40.869Z,94.88
2023-05-16T04:56:47.700Z,95.70
2023-05-16T05:01:55.005Z,94.38
2023-05-16T05:07:02.807Z,93.43
2023-05-16T05:12:12.019Z,92.78
2023-05-16T05:17:19.110Z,92.34
2023-05-16T05:22:27.362Z,92.32
2023-05-16T05:27:33.887Z,93.15
2023-05-16T05:32:40.634Z,93.36
2023-05-16T05:37:49.374Z,92.89
2023-05-16T05:42:56.528Z,92.01
2023-05-16T05:48:03.728Z,93.14
2023-05-16T05:53:12.260Z,92.62
2023-05-16T05:58:19.185Z,91.90
2023-05-16T06:03:26.058Z,91.44
2023-05-16T06:08:34.552Z,92.31
2023-05-16T06:13:40.970Z,91.03
2023-05-16T06:18:49.194Z,90.61
2023-05-16T06:23:57.464Z,91.04
2023-05-16T06:29:06.262Z,91.37
2023-05-16T06:34:12.955Z,91.62
2023-05-16T06:39:21.199Z,90.01
2023-05-16T06:44:28.079Z,89.75
2023-05-16T06:49:35.415Z,88.48
2023-05-16T06:54:43.681Z,88.69
2023-05-16T06:59:50.291Z,89.35
2023-05-16T07:04:56.937Z,90.22
2023-05-16T07:10:05.018Z,88.84
2023-05-16T07:15:13.940Z,87.60
2023-05-16T07:20:20.734Z,86.58
2023-05-16T07:25:29.336Z,86.18
2023-05-16T07:30:36.428Z,88.08
2023-05-16T07:35:43.366Z,88.58
2023-05-16T07:40:51.381Z,87.57
2023-05-16T07:45:58.153Z,87.56
2023-05-16T07:51:05.011Z,86.73
2023-05-16T07:56:13.308Z,86.52
2023-05-16T08:01:20.659Z,85.62
2023-05-16T08:06:30.138Z,85.23
2023-05-16T08:11:40.402Z,84.21
2023-05-16T08:16:47.274Z,82.93
2023-05-16T08:21:54.754Z,82.30
2023-05-16T08:27:02.794Z,81.07
2023-05-16T08:32:11.882Z,81.73
2023-05-16T08:37:18.692Z,83.02
2023-05-16T08:42:27.870Z,83.52
2023-05-16T08:47:36.990Z,82.42
2023-05-16T08:52:47.152Z,82.03
2023-05-16T08:57:58.207Z,82.20
2023-05-16T09:03:05.577Z,79.83
2023-05-16T09:08:12.312Z,81.08
2023-05-16T09:13:20.274Z,80.56
2023-05-16T09:18:28.826Z,80.51
2023-05-16T09:23:37.369Z,79.01
2023-05-16T09:28:45.815Z,78.75
2023-05-16T09:33:52.574Z,78.44
2023-05-16T09:38:59.547Z,77.75
2023-05-16T09:44:09.096Z,76.70
2023-05-16T09:49:17.313Z,75.98
2023-05-16T09:54:34.436Z,75.80
2023-05-16T09:59:43.733Z,75.49
2023-05-16T10:04:50.552Z,75.92
2023-05-16T10:09:58.818Z,76.42
2023-05-16T10:15:09.035Z,75.52
2023-05-16T10:20:17.001Z,75.14
2023-05-16T10:25:31.262Z,76.21
2023-05-16T10:30:42.346Z,74.75
2023-05-16T10:35:49.852Z,74.13
2023-05-16T10:40:57.626Z,74.67
2023-05-16T10:46:10.728Z,74.97
2023-05-16T10:51:39.418Z,73.67
2023-05-16T10:56:46.389Z,71.44
2023-05-16T11:01:58.091Z,73.00
2023-05-16T11:07:09.127Z,72.52
2023-05-16T11:12:16.602Z,70.15
2023-05-16T11:17:28.063Z,70.97
2023-05-16T11:22:41.630Z,71.65
2023-05-16T11:27:50.039Z,71.08
2023-05-16T11:32:58.739Z,71.49
2023-05-16T11:38:05.680Z,70.84
2023-05-16T11:43:14.014Z,70.78
2023-05-16T11:48:35.370Z,70.80
2023-05-16T11:53:43.451Z,70.51
2023-05-16T11:58:50.992Z,71.57
2023-05-16T12:04:00.192Z,70.45
2023-05-16T12:09:11.018Z,70.35
2023-05-16T12:14:19.443Z,70.34
2023-05-16T12:19:27.841Z,69.79
2023-05-16T12:24:35.034Z,68.80
2023-05-16T12:29:42.270Z,68.90
2023-05-16T12:34:56.406Z,68.36
2023-05-16T12:40:04.699Z,69.14
2023-05-16T12:45:18.675Z,69.36
2023-05-16T12:50:29.759Z,68.10
2023-05-16T12:55:39.807Z,68.60
2023-05-16T13:00:46.470Z,67.22
2023-05-16T13:05:54.780Z,67.81
2023-05-16T13:11:01.560Z,67.68
2023-05-16T13:16:10.918Z,67.34
2023-05-16T13:21:19.392Z,67.21
2023-05-16T13:26:27.149Z,66.11
2023-05-16T13:31:33.951Z,66.15
2023-05-16T13:36:53.995Z,67.18
2023-05-16T13:42:03.518Z,66.57
2023-05-16T13:47:10.359Z,66.68
2023-05-16T13:52:18.988Z,67.30
2023-05-16T13:57:27.871Z,66.89
2023-05-16T14:02:34.466Z,65.53
2023-05-16T14:07:46.674Z,64.17
2023-05-16T14:12:53.779Z,62.35
2023-05-16T14:18:00.538Z,63.06
2023-05-16T14:23:09.086Z,63.87
2023-05-16T14:28:20.830Z,64.69
2023-05-16T14:33:27.801Z,65.34
2023-05-16T14:38:36.178Z,64.99
2023-05-16T14:43:42.744Z,65.25
2023-05-16T14:48:49.342Z,64.59
2023-05-16T14:53:58.097Z,65.38
2023-05-16T14:59:05.024Z,65.20
2023-05-16T15:04:11.579Z,63.84
2023-05-16T15:09:19.638Z,65.76
2023-05-16T15:14:27.467Z,63.01
2023-05-16T15:19:34.291Z,62.75
2023-05-16T15:24:42.782Z,63.62
2023-05-16T15:29:49.590Z,63.28
2023-05-16T15:34:56.805Z,62.92
2023-05-16T15:40:06.408Z,62.69
2023-05-16T15:45:14.406Z,63.83
2023-05-16T15:50:21.603Z,64.35
2023-05-16T15:55:30.850Z,64.20
2023-05-16T16:00:37.652Z,65.53
2023-05-16T16:05:44.341Z,60.91
2023-05-16T16:10:52.681Z,62.20
2023-05-16T16:15:59.572Z,62.33
2023-05-16T16:21:07.778Z,64.38
2023-05-16T16:26:16.468Z,61.88
2023-05-16T16:31:23.109Z,61.91
2023-05-16T16:36:30.072Z,61.29
2023-05-16T16:41:39.912Z,62.31
2023-05-16T16:46:46.884Z,62.12
2023-05-16T16:51:53.820Z,62.84
2023-05-16T16:57:02.680Z,63.46
2023-05-16T17:02:09.825Z,64.08
2023-05-16T17:07:16.654Z,65.11
2023-05-16T17:12:29.171Z,65.94
2023-05-16T17:17:36.340Z,66.62
2023-05-16T17:22:48.699Z,66.93
2023-05-16T17:27:59.613Z,66.63
2023-05-16T17:33:10.361Z,67.45
2023-05-16T17:38:21.196Z,67.31
2023-05-16T17:43:31.498Z,69.06
2023-05-16T17:48:39.322Z,69.77
2023-05-16T17:53:49.882Z,71.28
2023-05-16T17:58:58.570Z,71.82
2023-05-16T18:04:07.330Z,72.53
2023-05-16T18:09:15.441Z,73.50
2023-05-16T18:14:24.053Z,75.14
2023-05-16T18:19:31.116Z,76.65
2023-05-16T18:24:38.393Z,77.30
2023-05-16T18:29:47.218Z,77.64
2023-05-16T18:34:54.029Z,78.36
2023-05-16T18:40:02.181Z,77.83
2023-05-16T18:45:14.180Z,78.98
2023-05-16T18:50:24.660Z,79.46
2023-05-16T18:55:32.080Z,79.10
2023-05-16T19:00:42.714Z,79.26
2023-05-16T19:05:50.059Z,79.82
2023-05-16T19:10:59.956Z,80.20
2023-05-16T19:16:10.649Z,80.21
2023-05-16T19:21:18.482Z,80.45
2023-05-16T19:26:29.652Z,81.17
2023-05-16T19:31:39.639Z,81.57
2023-05-16T19:36:46.950Z,82.48
2023-05-16T19:42:06.235Z,82.17
2023-05-16T19:47:16.447Z,82.59
2023-05-16T19:52:25.569Z,82.03
2023-05-16T19:57:32.414Z,82.80
2023-05-16T20:02:41.021Z,83.23
2023-05-16T20:07:47.969Z,85.43
2023-05-16T20:12:54.970Z,84.96
2023-05-16T20:18:06.909Z,84.75
2023-05-16T20:23:14.009Z,85.07
2023-05-16T20:28:21.341Z,85.42
2023-05-16T20:33:30.062Z,85.61
2023-05-16T20:38:38.726Z,85.82
2023-05-16T20:43:47.082Z,85.83
2023-05-16T20:48:55.288Z,86.38
2023-05-16T20:54:02.219Z,86.30
2023-05-16T20:59:09.980Z,86.95
2023-05-16T21:04:18.210Z,87.11
2023-05-16T21:09:25.068Z,87.12
2023-05-16T21:14:31.994Z,87.73
2023-05-16T21:19:42.586Z,87.73
2023-05-16T21:24:49.353Z,88.35
2023-05-16T21:29:55.765Z,88.47
2023-05-16T21:35:07.221Z,88.87
2023-05-16T21:40:19.502Z,89.58
2023-05-16T21:45:27.611Z,89.67
2023-05-16T21:50:36.498Z,90.00
2023-05-16T21:55:44.117Z,89.97
2023-05-16T22:00:52.573Z,90.95
2023-05-16T22:06:01.551Z,91.36
2023-05-16T22:11:09.062Z,91.52
2023-05-16T22:16:17.589Z,91.75
2023-05-16T22:21:25.926Z,91.39
2023-05-16T22:26:32.887Z,92.30
2023-05-16T22:31:39.500Z,92.76
2023-05-16T22:36:48.788Z,92.00
2023-05-16T22:41:55.763Z,91.82
2023-05-16T22:47:02.459Z,91.72
2023-05-16T22:52:10.972Z,91.65
2023-05-16T22:57:17.864Z,92.39
2023-05-16T23:02:27.011Z,92.98
2023-05-16T23:07:34.681Z,92.93
2023-05-16T23:12:41.167Z,93.36
2023-05-16T23:17:47.877Z,94.10
2023-05-16T23:22:56.915Z,95.14
2023-05-16T23:28:03.299Z,96.29
2023-05-16T23:33:09.928Z,96.11
2023-05-16T23:38:18.083Z,96.23
2023-05-16T23:43:25.689Z,96.63
2023-05-16T23:48:36.553Z,96.70
2023-05-16T23:53:44.998Z,96.91
2023-05-16T23:58:51.736Z,97.19
